Terminal Aerodrome Forecast
Issued by NWS

Home | Current Version | Previous Version | Text Only | Print | Product List | Glossary On
Versions: 1 2 3 4 5 6 7 8 9 10 11 12 13 14 15 16 17 18 19 20 21 22 23
269
FTUS43 KABR 271649 AAA
TAFPIR
TAF AMD
KPIR 271649Z 2717/2812 36007KT P6SM OVC110
     FM280200 VRB06KT P6SM SCT200
     FM280900 36006KT P6SM VCSH BKN070 OVC100=

USA.gov is the U.S. government's official web portal to all federal, state and local government web resources and services.